Accueil
METAR-TAF:

METAR-TAF

Aéroports :

Aéroport international de Chengdu-Shuangliu

Chengdu, Chine

latitude: 30-40N, longitude: 104-01E, altitude: 508 m

Observation

Le bulletin a été fait il y a 46 minutes, à 09:00 UTC
Vent 2 kt de direction variable
Température 15°C
Humidité 48%
Pression 1020 hPa
Visibilité 10 km ou plus
Nuages épars à une hauteur de 4000 ft

METAR: ZUUU 210900Z VRB01MPS 9999 SCT040 15/04 Q1020 NOSIG

Heure: 17:46 (09:46 UTC)

Prévision

Le bulletin a été fait il y a 7 heures et 39 minutes, à 02:07 UTC
Prévision valable du 21 à 06 UTC au 22 à 06 UTC
Vent 6 kt de sud-ouest
Visibilité: 5000 m
Nuages épars à une hauteur de 5000 ft
brume

TAF: ZUUU 210207Z 2106/2206 22003MPS 5000 BR SCT050 TX13/2107Z TN07/2123Z

Observations et prévisions météorologiques de plus de 4000 aéroports (messages METAR et TAF).

Les stations disponibles sont représentées par des disques jaunes et rouges sur la carte.

Passer la souris dessus pour voir le nom de la station.

Cliquer dessus pour voir les observations et prévisions météorologiques.

Pour changer de carte: cliquez sur les boutons verts avec une croix noire pour zoomer, sur le bouton vert avec un tiret pour effectuer un zoom arrière, ou sur les flèches vertes pour les cartes adjacentes.


METAR-TAF: